sensor_id;sensor_type;location;lat;lon;timestamp;pressure;altitude;pressure_sealevel;temperature;humidity
78986;BME280;68384;55.750;48.746;2024-01-27T00:00:21;99529.53;;;-6.25;78.83
78986;BME280;68384;55.750;48.746;2024-01-27T00:01:23;99538.13;;;-6.25;78.99
78986;BME280;68384;55.750;48.746;2024-01-27T00:02:26;99536.41;;;-6.24;78.43
78986;BME280;68384;55.750;48.746;2024-01-27T00:03:28;99536.41;;;-6.24;79.07
78986;BME280;68384;55.750;48.746;2024-01-27T00:04:30;99535.53;;;-6.25;78.71
78986;BME280;68384;55.750;48.746;2024-01-27T00:05:32;99531.22;;;-6.27;78.97
78986;BME280;68384;55.750;48.746;2024-01-27T00:06:35;99538.97;;;-6.24;79.19
78986;BME280;68384;55.750;48.746;2024-01-27T00:07:37;99540.69;;;-6.25;78.73
78986;BME280;68384;55.750;48.746;2024-01-27T00:08:40;99536.41;;;-6.21;78.81
78986;BME280;68384;55.750;48.746;2024-01-27T00:09:42;99537.25;;;-6.20;79.12
78986;BME280;68384;55.750;48.746;2024-01-27T00:10:45;99536.41;;;-6.21;79.07
78986;BME280;68384;55.750;48.746;2024-01-27T00:11:48;99536.38;;;-6.18;78.62
78986;BME280;68384;55.750;48.746;2024-01-27T00:12:50;99539.81;;;-6.17;78.09
78986;BME280;68384;55.750;48.746;2024-01-27T00:13:52;99540.66;;;-6.18;78.72
78986;BME280;68384;55.750;48.746;2024-01-27T00:14:55;99530.38;;;-6.21;79.21
78986;BME280;68384;55.750;48.746;2024-01-27T00:15:57;99530.38;;;-6.25;78.62
78986;BME280;68384;55.750;48.746;2024-01-27T00:16:59;99533.81;;;-6.26;78.25
78986;BME280;68384;55.750;48.746;2024-01-27T00:18:01;99527.78;;;-6.29;78.96
78986;BME280;68384;55.750;48.746;2024-01-27T00:19:04;99527.78;;;-6.29;79.16
78986;BME280;68384;55.750;48.746;2024-01-27T00:20:07;99526.06;;;-6.30;79.09
78986;BME280;68384;55.750;48.746;2024-01-27T00:21:09;99530.38;;;-6.28;79.54
78986;BME280;68384;55.750;48.746;2024-01-27T00:22:11;99526.06;;;-6.30;79.65
78986;BME280;68384;55.750;48.746;2024-01-27T00:23:14;99517.50;;;-6.29;79.97
78986;BME280;68384;55.750;48.746;2024-01-27T00:24:16;99520.94;;;-6.29;80.20
78986;BME280;68384;55.750;48.746;2024-01-27T00:25:19;99530.38;;;-6.28;79.17
78986;BME280;68384;55.750;48.746;2024-01-27T00:26:21;99522.66;;;-6.26;79.74
78986;BME280;68384;55.750;48.746;2024-01-27T00:27:23;99529.53;;;-6.27;79.46
78986;BME280;68384;55.750;48.746;2024-01-27T00:28:25;99530.38;;;-6.31;79.81
78986;BME280;68384;55.750;48.746;2024-01-27T00:29:27;99532.09;;;-6.28;79.29
78986;BME280;68384;55.750;48.746;2024-01-27T00:30:30;99537.25;;;-6.28;79.85
78986;BME280;68384;55.750;48.746;2024-01-27T00:31:32;99533.81;;;-6.24;79.78
78986;BME280;68384;55.750;48.746;2024-01-27T00:32:34;99531.25;;;-6.22;79.13
78986;BME280;68384;55.750;48.746;2024-01-27T00:33:36;99531.25;;;-6.21;79.94
78986;BME280;68384;55.750;48.746;2024-01-27T00:34:39;99530.38;;;-6.17;79.67
78986;BME280;68384;55.750;48.746;2024-01-27T00:35:42;99538.09;;;-6.14;79.71
78986;BME280;68384;55.750;48.746;2024-01-27T00:36:44;99528.66;;;-6.15;79.70
78986;BME280;68384;55.750;48.746;2024-01-27T00:37:52;99538.97;;;-6.13;79.41
78986;BME280;68384;55.750;48.746;2024-01-27T00:38:54;99530.38;;;-6.11;79.11
78986;BME280;68384;55.750;48.746;2024-01-27T00:39:57;99538.97;;;-6.10;79.09
78986;BME280;68384;55.750;48.746;2024-01-27T00:40:59;99540.69;;;-6.08;79.56
78986;BME280;68384;55.750;48.746;2024-01-27T00:42:01;99535.53;;;-6.09;79.18
78986;BME280;68384;55.750;48.746;2024-01-27T00:43:03;99536.38;;;-6.07;79.44
78986;BME280;68384;55.750;48.746;2024-01-27T00:44:05;99541.53;;;-6.09;78.93
78986;BME280;68384;55.750;48.746;2024-01-27T00:45:08;99537.25;;;-6.11;79.21
78986;BME280;68384;55.750;48.746;2024-01-27T00:46:10;99544.13;;;-6.13;79.48
78986;BME280;68384;55.750;48.746;2024-01-27T00:47:12;99546.69;;;-6.16;79.27
78986;BME280;68384;55.750;48.746;2024-01-27T00:48:14;99546.69;;;-6.15;79.43
78986;BME280;68384;55.750;48.746;2024-01-27T00:49:17;99544.97;;;-6.16;79.52
78986;BME280;68384;55.750;48.746;2024-01-27T00:50:20;99546.72;;;-6.19;79.46
78986;BME280;68384;55.750;48.746;2024-01-27T00:51:22;99550.13;;;-6.24;79.67
78986;BME280;68384;55.750;48.746;2024-01-27T00:52:25;99543.25;;;-6.25;79.62
78986;BME280;68384;55.750;48.746;2024-01-27T00:53:27;99545.84;;;-6.28;79.35
78986;BME280;68384;55.750;48.746;2024-01-27T00:54:29;99551.00;;;-6.28;79.12
78986;BME280;68384;55.750;48.746;2024-01-27T00:55:31;99544.97;;;-6.28;79.43
78986;BME280;68384;55.750;48.746;2024-01-27T00:56:33;99550.09;;;-6.37;79.41
78986;BME280;68384;55.750;48.746;2024-01-27T00:57:36;99540.69;;;-6.41;78.93
78986;BME280;68384;55.750;48.746;2024-01-27T00:58:40;99552.69;;;-6.42;79.05
78986;BME280;68384;55.750;48.746;2024-01-27T00:59:42;99549.25;;;-6.42;79.51
78986;BME280;68384;55.750;48.746;2024-01-27T01:00:44;99551.84;;;-6.45;79.15
78986;BME280;68384;55.750;48.746;2024-01-27T01:01:46;99549.25;;;-6.48;78.76
78986;BME280;68384;55.750;48.746;2024-01-27T01:02:49;99562.13;;;-6.48;78.86
78986;BME280;68384;55.750;48.746;2024-01-27T01:03:51;99540.66;;;-6.52;78.50
78986;BME280;68384;55.750;48.746;2024-01-27T01:04:53;99551.81;;;-6.50;78.58
78986;BME280;68384;55.750;48.746;2024-01-27T01:05:55;99556.97;;;-6.48;77.88
78986;BME280;68384;55.750;48.746;2024-01-27T01:06:58;99550.97;;;-6.49;77.73
78986;BME280;68384;55.750;48.746;2024-01-27T01:08:00;99550.09;;;-6.49;77.43
78986;BME280;68384;55.750;48.746;2024-01-27T01:09:03;99553.53;;;-6.52;77.79
78986;BME280;68384;55.750;48.746;2024-01-27T01:10:05;99553.53;;;-6.52;77.73
78986;BME280;68384;55.750;48.746;2024-01-27T01:11:08;99559.53;;;-6.53;77.80
78986;BME280;68384;55.750;48.746;2024-01-27T01:12:10;99555.25;;;-6.52;77.83
78986;BME280;68384;55.750;48.746;2024-01-27T01:13:12;99554.38;;;-6.53;77.73
78986;BME280;68384;55.750;48.746;2024-01-27T01:14:15;99551.78;;;-6.56;78.51
78986;BME280;68384;55.750;48.746;2024-01-27T01:15:17;99560.41;;;-6.60;78.01
78986;BME280;68384;55.750;48.746;2024-01-27T01:16:19;99544.09;;;-6.59;78.85
78986;BME280;68384;55.750;48.746;2024-01-27T01:17:22;99546.66;;;-6.61;78.42
78986;BME280;68384;55.750;48.746;2024-01-27T01:18:24;99546.66;;;-6.59;78.24
78986;BME280;68384;55.750;48.746;2024-01-27T01:19:26;99544.09;;;-6.59;78.64
78986;BME280;68384;55.750;48.746;2024-01-27T01:20:28;99547.53;;;-6.60;78.47
78986;BME280;68384;55.750;48.746;2024-01-27T01:21:32;99548.38;;;-6.63;77.89
78986;BME280;68384;55.750;48.746;2024-01-27T01:22:34;99548.34;;;-6.66;76.97
78986;BME280;68384;55.750;48.746;2024-01-27T01:23:37;99548.34;;;-6.67;77.40
78986;BME280;68384;55.750;48.746;2024-01-27T01:24:39;99547.50;;;-6.68;77.41
78986;BME280;68384;55.750;48.746;2024-01-27T01:25:41;99550.06;;;-6.66;77.25
78986;BME280;68384;55.750;48.746;2024-01-27T01:26:43;99541.50;;;-6.65;76.28
78986;BME280;68384;55.750;48.746;2024-01-27T01:27:46;99548.34;;;-6.67;76.49
78986;BME280;68384;55.750;48.746;2024-01-27T01:28:48;99547.50;;;-6.66;76.68
78986;BME280;68384;55.750;48.746;2024-01-27T01:29:50;99552.63;;;-6.69;76.13
78986;BME280;68384;55.750;48.746;2024-01-27T01:30:52;99556.06;;;-6.70;75.60
78986;BME280;68384;55.750;48.746;2024-01-27T01:31:54;99555.22;;;-6.69;74.99
78986;BME280;68384;55.750;48.746;2024-01-27T01:32:57;99552.63;;;-6.69;75.66
78986;BME280;68384;55.750;48.746;2024-01-27T01:33:59;99556.06;;;-6.70;75.64
78986;BME280;68384;55.750;48.746;2024-01-27T01:35:02;99553.47;;;-6.73;75.18
78986;BME280;68384;55.750;48.746;2024-01-27T01:36:05;99551.78;;;-6.76;75.65
78986;BME280;68384;55.750;48.746;2024-01-27T01:37:07;99550.06;;;-6.80;74.93
78986;BME280;68384;55.750;48.746;2024-01-27T01:38:09;99554.31;;;-6.83;74.83
78986;BME280;68384;55.750;48.746;2024-01-27T01:39:11;99560.34;;;-6.83;74.57
78986;BME280;68384;55.750;48.746;2024-01-27T01:40:16;99556.91;;;-6.83;74.88
78986;BME280;68384;55.750;48.746;2024-01-27T01:41:19;99563.75;;;-6.85;74.95
78986;BME280;68384;55.750;48.746;2024-01-27T01:42:21;99559.47;;;-6.85;74.67
78986;BME280;68384;55.750;48.746;2024-01-27T01:43:26;99565.47;;;-6.83;74.21
78986;BME280;68384;55.750;48.746;2024-01-27T01:44:30;99572.34;;;-6.82;74.41
78986;BME280;68384;55.750;48.746;2024-01-27T01:45:33;99563.75;;;-6.84;73.79
78986;BME280;68384;55.750;48.746;2024-01-27T01:46:36;99572.34;;;-6.83;74.19
78986;BME280;68384;55.750;48.746;2024-01-27T01:47:38;99573.19;;;-6.83;74.32
78986;BME280;68384;55.750;48.746;2024-01-27T01:48:40;99574.06;;;-6.85;74.15
78986;BME280;68384;55.750;48.746;2024-01-27T01:49:43;99580.06;;;-6.89;73.72
78986;BME280;68384;55.750;48.746;2024-01-27T01:50:46;99578.34;;;-6.90;73.74
78986;BME280;68384;55.750;48.746;2024-01-27T01:51:48;99575.75;;;-6.94;73.04
78986;BME280;68384;55.750;48.746;2024-01-27T01:52:51;99579.22;;;-6.95;73.04
78986;BME280;68384;55.750;48.746;2024-01-27T01:53:56;99571.47;;;-6.91;73.22
78986;BME280;68384;55.750;48.746;2024-01-27T01:54:59;99575.75;;;-6.92;73.00
78986;BME280;68384;55.750;48.746;2024-01-27T01:56:01;99577.50;;;-6.96;73.43
78986;BME280;68384;55.750;48.746;2024-01-27T01:57:04;99574.06;;;-6.96;73.35
78986;BME280;68384;55.750;48.746;2024-01-27T01:58:07;99574.91;;;-6.96;73.73
78986;BME280;68384;55.750;48.746;2024-01-27T01:59:09;99572.34;;;-6.96;73.54
78986;BME280;68384;55.750;48.746;2024-01-27T02:00:11;99571.47;;;-6.99;72.62
78986;BME280;68384;55.750;48.746;2024-01-27T02:01:14;99574.88;;;-7.05;73.57
78986;BME280;68384;55.750;48.746;2024-01-27T02:02:17;99575.69;;;-7.12;72.73
78986;BME280;68384;55.750;48.746;2024-01-27T02:03:19;99573.13;;;-7.15;73.08
78986;BME280;68384;55.750;48.746;2024-01-27T02:04:22;99572.25;;;-7.18;73.86
78986;BME280;68384;55.750;48.746;2024-01-27T02:05:24;99571.38;;;-7.19;73.30
78986;BME280;68384;55.750;48.746;2024-01-27T02:06:27;99571.34;;;-7.25;72.99
78986;BME280;68384;55.750;48.746;2024-01-27T02:07:29;99568.75;;;-7.28;73.70
78986;BME280;68384;55.750;48.746;2024-01-27T02:08:31;99567.91;;;-7.29;73.95
78986;BME280;68384;55.750;48.746;2024-01-27T02:09:33;99574.75;;;-7.35;74.33
78986;BME280;68384;55.750;48.746;2024-01-27T02:10:36;99573.88;;;-7.34;73.74
78986;BME280;68384;55.750;48.746;2024-01-27T02:11:38;99570.44;;;-7.39;74.05
78986;BME280;68384;55.750;48.746;2024-01-27T02:12:42;99572.97;;;-7.44;74.41
78986;BME280;68384;55.750;48.746;2024-01-27T02:13:44;99572.06;;;-7.49;74.34
78986;BME280;68384;55.750;48.746;2024-01-27T02:14:49;99573.81;;;-7.51;74.62
78986;BME280;68384;55.750;48.746;2024-01-27T02:15:51;99574.63;;;-7.53;75.22
78986;BME280;68384;55.750;48.746;2024-01-27T02:17:13;99568.59;;;-7.60;74.52
78986;BME280;68384;55.750;48.746;2024-01-27T02:18:15;99574.56;;;-7.64;74.80
78986;BME280;68384;55.750;48.746;2024-01-27T02:19:18;99574.56;;;-7.64;75.21
78986;BME280;68384;55.750;48.746;2024-01-27T02:20:21;99579.69;;;-7.66;74.86
78986;BME280;68384;55.750;48.746;2024-01-27T02:21:23;99573.69;;;-7.71;75.02
78986;BME280;68384;55.750;48.746;2024-01-27T02:22:25;99579.69;;;-7.70;75.50
78986;BME280;68384;55.750;48.746;2024-01-27T02:23:27;99581.41;;;-7.69;75.80
78986;BME280;68384;55.750;48.746;2024-01-27T02:24:29;99585.69;;;-7.70;75.52
78986;BME280;68384;55.750;48.746;2024-01-27T02:25:32;99583.09;;;-7.70;75.53
78986;BME280;68384;55.750;48.746;2024-01-27T02:26:34;99581.38;;;-7.71;75.42
78986;BME280;68384;55.750;48.746;2024-01-27T02:27:36;99581.38;;;-7.68;74.89
78986;BME280;68384;55.750;48.746;2024-01-27T02:28:39;99585.66;;;-7.67;75.72
78986;BME280;68384;55.750;48.746;2024-01-27T02:29:41;99581.38;;;-7.68;75.35
78986;BME280;68384;55.750;48.746;2024-01-27T02:30:43;99582.25;;;-7.66;75.13
78986;BME280;68384;55.750;48.746;2024-01-27T02:31:45;99586.53;;;-7.68;75.42
78986;BME280;68384;55.750;48.746;2024-01-27T02:32:48;99587.38;;;-7.67;75.87
78986;BME280;68384;55.750;48.746;2024-01-27T02:33:50;99589.09;;;-7.66;76.31
78986;BME280;68384;55.750;48.746;2024-01-27T02:34:52;99584.84;;;-7.63;75.73
78986;BME280;68384;55.750;48.746;2024-01-27T02:35:54;99594.28;;;-7.60;75.87
78986;BME280;68384;55.750;48.746;2024-01-27T02:36:57;99592.56;;;-7.63;75.72
78986;BME280;68384;55.750;48.746;2024-01-27T02:37:59;99593.41;;;-7.64;76.21
78986;BME280;68384;55.750;48.746;2024-01-27T02:39:02;99594.25;;;-7.65;75.86
78986;BME280;68384;55.750;48.746;2024-01-27T02:40:04;99597.66;;;-7.67;76.58
78986;BME280;68384;55.750;48.746;2024-01-27T02:41:09;99599.38;;;-7.66;76.30
78986;BME280;68384;55.750;48.746;2024-01-27T02:42:12;99592.53;;;-7.69;76.47
78986;BME280;68384;55.750;48.746;2024-01-27T02:43:14;99593.38;;;-7.67;76.19
78986;BME280;68384;55.750;48.746;2024-01-27T02:44:16;99601.94;;;-7.68;77.18
78986;BME280;68384;55.750;48.746;2024-01-27T02:45:19;99598.53;;;-7.70;77.20
78986;BME280;68384;55.750;48.746;2024-01-27T02:46:21;99599.38;;;-7.69;76.89
78986;BME280;68384;55.750;48.746;2024-01-27T02:47:23;99602.81;;;-7.67;77.08
78986;BME280;68384;55.750;48.746;2024-01-27T02:48:25;99595.97;;;-7.68;77.09
78986;BME280;68384;55.750;48.746;2024-01-27T02:49:28;99598.53;;;-7.67;76.96
78986;BME280;68384;55.750;48.746;2024-01-27T02:50:30;99601.97;;;-7.66;76.43
78986;BME280;68384;55.750;48.746;2024-01-27T02:51:32;99608.81;;;-7.65;77.58
78986;BME280;68384;55.750;48.746;2024-01-27T02:52:35;99607.94;;;-7.67;77.08
78986;BME280;68384;55.750;48.746;2024-01-27T02:53:37;99604.50;;;-7.68;76.56
78986;BME280;68384;55.750;48.746;2024-01-27T02:54:39;99601.09;;;-7.70;76.89
78986;BME280;68384;55.750;48.746;2024-01-27T02:55:42;99598.53;;;-7.70;76.96
78986;BME280;68384;55.750;48.746;2024-01-27T02:56:44;99601.09;;;-7.70;77.14
78986;BME280;68384;55.750;48.746;2024-01-27T02:57:46;99600.25;;;-7.70;77.64
78986;BME280;68384;55.750;48.746;2024-01-27T02:58:48;99608.78;;;-7.73;77.11
78986;BME280;68384;55.750;48.746;2024-01-27T02:59:50;99608.81;;;-7.70;77.50
78986;BME280;68384;55.750;48.746;2024-01-27T03:00:52;99607.06;;;-7.74;78.23
78986;BME280;68384;55.750;48.746;2024-01-27T03:01:55;99607.06;;;-7.74;78.22
78986;BME280;68384;55.750;48.746;2024-01-27T03:02:57;99607.06;;;-7.75;77.58
78986;BME280;68384;55.750;48.746;2024-01-27T03:04:00;99603.66;;;-7.71;77.98
78986;BME280;68384;55.750;48.746;2024-01-27T03:05:03;99607.06;;;-7.74;77.17
78986;BME280;68384;55.750;48.746;2024-01-27T03:06:06;99608.78;;;-7.73;77.47
78986;BME280;68384;55.750;48.746;2024-01-27T03:07:08;99607.91;;;-7.76;77.44
78986;BME280;68384;55.750;48.746;2024-01-27T03:08:10;99611.31;;;-7.77;77.47
78986;BME280;68384;55.750;48.746;2024-01-27T03:09:13;99613.03;;;-7.78;77.77
78986;BME280;68384;55.750;48.746;2024-01-27T03:10:15;99615.59;;;-7.78;77.93
78986;BME280;68384;55.750;48.746;2024-01-27T03:11:17;99616.47;;;-7.76;77.79
78986;BME280;68384;55.750;48.746;2024-01-27T03:12:20;99613.91;;;-7.74;77.82
78986;BME280;68384;55.750;48.746;2024-01-27T03:13:25;99616.47;;;-7.77;77.42
78986;BME280;68384;55.750;48.746;2024-01-27T03:14:27;99618.19;;;-7.76;77.60
78986;BME280;68384;55.750;48.746;2024-01-27T03:15:29;99619.03;;;-7.76;77.73
78986;BME280;68384;55.750;48.746;2024-01-27T03:16:32;99622.44;;;-7.78;77.34
78986;BME280;68384;55.750;48.746;2024-01-27T03:17:34;99619.03;;;-7.76;77.84
78986;BME280;68384;55.750;48.746;2024-01-27T03:18:36;99617.34;;;-7.75;77.61
78986;BME280;68384;55.750;48.746;2024-01-27T03:19:42;99613.91;;;-7.74;77.44
78986;BME280;68384;55.750;48.746;2024-01-27T03:20:47;99625.91;;;-7.75;77.33
78986;BME280;68384;55.750;48.746;2024-01-27T03:21:50;99626.75;;;-7.76;77.30
78986;BME280;68384;55.750;48.746;2024-01-27T03:22:52;99621.59;;;-7.77;76.92
78986;BME280;68384;55.750;48.746;2024-01-27T03:23:54;99624.13;;;-7.82;76.83
78986;BME280;68384;55.750;48.746;2024-01-27T03:24:56;99618.09;;;-7.87;77.72
78986;BME280;68384;55.750;48.746;2024-01-27T03:25:58;99628.38;;;-7.88;77.12
78986;BME280;68384;55.750;48.746;2024-01-27T03:27:01;99622.38;;;-7.87;77.74
78986;BME280;68384;55.750;48.746;2024-01-27T03:28:03;99623.22;;;-7.91;77.67
78986;BME280;68384;55.750;48.746;2024-01-27T03:29:06;99620.59;;;-7.96;77.68
78986;BME280;68384;55.750;48.746;2024-01-27T03:30:08;99616.28;;;-7.97;77.71
78986;BME280;68384;55.750;48.746;2024-01-27T03:31:11;99624.03;;;-7.95;77.18
78986;BME280;68384;55.750;48.746;2024-01-27T03:32:13;99622.28;;;-7.98;77.22
78986;BME280;68384;55.750;48.746;2024-01-27T03:33:16;99625.69;;;-7.99;77.22
78986;BME280;68384;55.750;48.746;2024-01-27T03:34:18;99618.84;;;-7.99;77.72
78986;BME280;68384;55.750;48.746;2024-01-27T03:35:22;99624.81;;;-8.01;77.26
78986;BME280;68384;55.750;48.746;2024-01-27T03:36:24;99623.94;;;-8.03;77.46
78986;BME280;68384;55.750;48.746;2024-01-27T03:37:27;99622.25;;;-8.01;77.65
78986;BME280;68384;55.750;48.746;2024-01-27T03:38:29;99623.09;;;-8.05;77.63
78986;BME280;68384;55.750;48.746;2024-01-27T03:39:31;99629.06;;;-8.03;77.74
78986;BME280;68384;55.750;48.746;2024-01-27T03:40:33;99633.38;;;-8.05;77.51
78986;BME280;68384;55.750;48.746;2024-01-27T03:41:35;99635.94;;;-8.05;77.50
78986;BME280;68384;55.750;48.746;2024-01-27T03:42:37;99635.91;;;-8.08;77.73
78986;BME280;68384;55.750;48.746;2024-01-27T03:43:40;99620.50;;;-8.08;77.49
78986;BME280;68384;55.750;48.746;2024-01-27T03:44:42;99645.34;;;-8.07;77.95
78986;BME280;68384;55.750;48.746;2024-01-27T03:45:44;99635.91;;;-8.08;77.73
78986;BME280;68384;55.750;48.746;2024-01-27T03:46:47;99641.88;;;-8.11;77.82
78986;BME280;68384;55.750;48.746;2024-01-27T03:47:50;99643.63;;;-8.07;78.11
78986;BME280;68384;55.750;48.746;2024-01-27T03:48:52;99643.66;;;-8.05;77.90
78986;BME280;68384;55.750;48.746;2024-01-27T03:49:55;99635.94;;;-8.05;77.65
78986;BME280;68384;55.750;48.746;2024-01-27T03:50:57;99642.78;;;-8.04;77.60
78986;BME280;68384;55.750;48.746;2024-01-27T03:51:59;99644.47;;;-8.05;77.86
78986;BME280;68384;55.750;48.746;2024-01-27T03:53:02;99641.06;;;-8.07;77.22
78986;BME280;68384;55.750;48.746;2024-01-27T03:54:04;99639.34;;;-8.08;77.92
78986;BME280;68384;55.750;48.746;2024-01-27T03:55:06;99642.78;;;-8.07;78.02
78986;BME280;68384;55.750;48.746;2024-01-27T03:56:11;99637.66;;;-8.06;77.81
78986;BME280;68384;55.750;48.746;2024-01-27T03:57:14;99641.06;;;-8.04;77.79
78986;BME280;68384;55.750;48.746;2024-01-27T03:58:16;99650.47;;;-8.04;77.78
78986;BME280;68384;55.750;48.746;2024-01-27T03:59:18;99646.22;;;-8.02;77.50
78986;BME280;68384;55.750;48.746;2024-01-27T04:00:21;99650.53;;;-8.00;77.85
78986;BME280;68384;55.750;48.746;2024-01-27T04:01:23;99646.19;;;-8.04;77.70
78986;BME280;68384;55.750;48.746;2024-01-27T04:02:25;99647.06;;;-8.03;77.81
78986;BME280;68384;55.750;48.746;2024-01-27T04:03:27;99649.63;;;-8.03;77.61
78986;BME280;68384;55.750;48.746;2024-01-27T04:04:29;99647.94;;;-8.03;77.73
78986;BME280;68384;55.750;48.746;2024-01-27T04:05:32;99652.22;;;-8.00;77.82
78986;BME280;68384;55.750;48.746;2024-01-27T04:06:38;99656.53;;;-7.99;77.18
78986;BME280;68384;55.750;48.746;2024-01-27T04:07:40;99655.66;;;-8.00;76.96
78986;BME280;68384;55.750;48.746;2024-01-27T04:08:43;99647.97;;;-8.00;77.50
78986;BME280;68384;55.750;48.746;2024-01-27T04:09:48;99659.97;;;-7.97;77.37
78986;BME280;68384;55.750;48.746;2024-01-27T04:10:50;99663.38;;;-7.98;77.96
78986;BME280;68384;55.750;48.746;2024-01-27T04:11:52;99659.09;;;-7.99;77.45
78986;BME280;68384;55.750;48.746;2024-01-27T04:12:55;99666.81;;;-7.99;77.43
78986;BME280;68384;55.750;48.746;2024-01-27T04:13:57;99660.81;;;-8.00;77.54
78986;BME280;68384;55.750;48.746;2024-01-27T04:14:59;99665.97;;;-7.96;77.79
78986;BME280;68384;55.750;48.746;2024-01-27T04:16:02;99669.41;;;-7.94;77.46
78986;BME280;68384;55.750;48.746;2024-01-27T04:17:04;99662.50;;;-8.00;77.20
78986;BME280;68384;55.750;48.746;2024-01-27T04:18:08;99666.81;;;-7.99;77.68
78986;BME280;68384;55.750;48.746;2024-01-27T04:19:11;99669.38;;;-7.99;77.48
78986;BME280;68384;55.750;48.746;2024-01-27T04:20:14;99668.50;;;-8.00;76.84
78986;BME280;68384;55.750;48.746;2024-01-27T04:21:16;99663.34;;;-8.01;77.73
78986;BME280;68384;55.750;48.746;2024-01-27T04:22:18;99661.63;;;-8.02;77.09
78986;BME280;68384;55.750;48.746;2024-01-27T04:23:20;99673.63;;;-8.01;77.33
78986;BME280;68384;55.750;48.746;2024-01-27T04:24:23;99671.88;;;-8.04;77.38
78986;BME280;68384;55.750;48.746;2024-01-27T04:25:25;99671.91;;;-8.05;76.88
78986;BME280;68384;55.750;48.746;2024-01-27T04:26:27;99674.47;;;-8.05;77.13
78986;BME280;68384;55.750;48.746;2024-01-27T04:27:30;99671.88;;;-8.04;77.58
78986;BME280;68384;55.750;48.746;2024-01-27T04:28:32;99677.91;;;-8.03;77.12
78986;BME280;68384;55.750;48.746;2024-01-27T04:29:36;99673.63;;;-8.03;77.08
78986;BME280;68384;55.750;48.746;2024-01-27T04:30:38;99675.31;;;-8.06;76.98
78986;BME280;68384;55.750;48.746;2024-01-27T04:31:41;99672.75;;;-8.06;77.54
78986;BME280;68384;55.750;48.746;2024-01-27T04:32:43;99671.03;;;-8.06;77.05
78986;BME280;68384;55.750;48.746;2024-01-27T04:33:46;99668.47;;;-8.04;77.20
78986;BME280;68384;55.750;48.746;2024-01-27T04:34:48;99676.19;;;-8.06;76.67
78986;BME280;68384;55.750;48.746;2024-01-27T04:35:51;99670.19;;;-8.06;76.89
78986;BME280;68384;55.750;48.746;2024-01-27T04:36:53;99673.59;;;-8.07;76.89
78986;BME280;68384;55.750;48.746;2024-01-27T04:37:56;99669.31;;;-8.08;77.00
78986;BME280;68384;55.750;48.746;2024-01-27T04:38:58;99669.31;;;-8.08;77.29
78986;BME280;68384;55.750;48.746;2024-01-27T04:40:00;99668.44;;;-8.10;77.30
78986;BME280;68384;55.750;48.746;2024-01-27T04:41:02;99670.13;;;-8.12;76.47
78986;BME280;68384;55.750;48.746;2024-01-27T04:42:05;99675.22;;;-8.14;77.27
78986;BME280;68384;55.750;48.746;2024-01-27T04:43:17;99673.47;;;-8.19;77.01
78986;BME280;68384;55.750;48.746;2024-01-27T04:44:20;99673.41;;;-8.22;76.49
78986;BME280;68384;55.750;48.746;2024-01-27T04:45:22;99675.13;;;-8.24;77.48
78986;BME280;68384;55.750;48.746;2024-01-27T04:46:24;99675.09;;;-8.29;77.12
78986;BME280;68384;55.750;48.746;2024-01-27T04:47:27;99675.09;;;-8.27;77.37
78986;BME280;68384;55.750;48.746;2024-01-27T04:48:29;99675.09;;;-8.27;77.71
78986;BME280;68384;55.750;48.746;2024-01-27T04:49:31;99679.31;;;-8.32;78.05
78986;BME280;68384;55.750;48.746;2024-01-27T04:50:34;99675.88;;;-8.35;76.96
78986;BME280;68384;55.750;48.746;2024-01-27T04:51:36;99679.31;;;-8.34;77.51
78986;BME280;68384;55.750;48.746;2024-01-27T04:52:38;99680.16;;;-8.34;77.79
78986;BME280;68384;55.750;48.746;2024-01-27T04:53:43;99684.47;;;-8.32;77.48
78986;BME280;68384;55.750;48.746;2024-01-27T04:54:46;99687.03;;;-8.32;77.53
78986;BME280;68384;55.750;48.746;2024-01-27T04:55:48;99681.94;;;-8.28;77.09
78986;BME280;68384;55.750;48.746;2024-01-27T04:56:50;99687.06;;;-8.29;77.02
78986;BME280;68384;55.750;48.746;2024-01-27T04:57:53;99685.34;;;-8.30;77.19
78986;BME280;68384;55.750;48.746;2024-01-27T04:58:55;99695.63;;;-8.29;77.36
78986;BME280;68384;55.750;48.746;2024-01-27T04:59:57;99691.38;;;-8.25;77.19
78986;BME280;68384;55.750;48.746;2024-01-27T05:01:01;99693.97;;;-8.24;76.92
78986;BME280;68384;55.750;48.746;2024-01-27T05:02:03;99697.41;;;-8.22;76.41
78986;BME280;68384;55.750;48.746;2024-01-27T05:03:05;99698.28;;;-8.20;76.73
78986;BME280;68384;55.750;48.746;2024-01-27T05:04:10;99693.09;;;-8.23;75.96
78986;BME280;68384;55.750;48.746;2024-01-27T05:05:12;99700.81;;;-8.23;76.26
78986;BME280;68384;55.750;48.746;2024-01-27T05:06:15;99705.09;;;-8.23;76.02
78986;BME280;68384;55.750;48.746;2024-01-27T05:07:18;99697.41;;;-8.22;76.67
78986;BME280;68384;55.750;48.746;2024-01-27T05:08:20;99700.84;;;-8.20;76.45
78986;BME280;68384;55.750;48.746;2024-01-27T05:09:22;99704.28;;;-8.19;76.34
78986;BME280;68384;55.750;48.746;2024-01-27T05:10:24;99699.97;;;-8.20;75.90
78986;BME280;68384;55.750;48.746;2024-01-27T05:11:31;99702.56;;;-8.20;75.28
78986;BME280;68384;55.750;48.746;2024-01-27T05:12:34;99711.09;;;-8.21;75.70
78986;BME280;68384;55.750;48.746;2024-01-27T05:13:36;99706.81;;;-8.21;75.67
78986;BME280;68384;55.750;48.746;2024-01-27T05:14:43;99707.69;;;-8.20;75.80
78986;BME280;68384;55.750;48.746;2024-01-27T05:15:46;99712.81;;;-8.22;75.05
78986;BME280;68384;55.750;48.746;2024-01-27T05:16:49;99717.06;;;-8.25;75.10
78986;BME280;68384;55.750;48.746;2024-01-27T05:17:51;99717.09;;;-8.24;75.36
78986;BME280;68384;55.750;48.746;2024-01-27T05:18:54;99719.59;;;-8.30;74.86
78986;BME280;68384;55.750;48.746;2024-01-27T05:19:58;99711.78;;;-8.38;75.24
78986;BME280;68384;55.750;48.746;2024-01-27T05:21:00;99710.91;;;-8.38;75.12
78986;BME280;68384;55.750;48.746;2024-01-27T05:22:03;99712.59;;;-8.40;75.41
78986;BME280;68384;55.750;48.746;2024-01-27T05:23:05;99706.59;;;-8.44;75.23
78986;BME280;68384;55.750;48.746;2024-01-27T05:24:07;99713.41;;;-8.46;75.09
78986;BME280;68384;55.750;48.746;2024-01-27T05:25:09;99709.88;;;-8.54;75.54
78986;BME280;68384;55.750;48.746;2024-01-27T05:26:11;99712.41;;;-8.57;75.38
78986;BME280;68384;55.750;48.746;2024-01-27T05:27:14;99719.22;;;-8.62;75.08